Time;durP1;ratioP1;P1;durP2;ratioP2;P2;SDS_P1;SDS_P2;PMS_P1;PMS_P2;Temp;Humidity;BMP_temperature;BMP_pressure;BME280_temperature;BME280_humidity;BME280_pressure;Samples;Min_cycle;Max_cycle;Signal;HPM_P1;HPM_P2
2021/04/06 00:00:29;;;;;;;2.92;0.82;;;;;;;;;;10205301;28;20037;-66
2021/04/06 00:05:27;;;;;;;0.65;0.65;;;;;;;;;;10304121;28;20505;-66
2021/04/06 00:10:28;;;;;;;2.97;0.60;;;;;;;;;;10291731;28;20077;-66
2021/04/06 00:15:27;;;;;;;4.53;1.17;;;;;;;;;;10296554;28;20064;-66
2021/04/06 00:20:25;;;;;;;1.85;0.93;;;;;;;;;;10283912;28;20030;-66
2021/04/06 00:25:26;;;;;;;5.78;2.40;;;;;;;;;;10298874;28;20447;-65
2021/04/06 00:30:27;;;;;;;4.90;1.42;;;;;;;;;;10296804;28;20021;-65
2021/04/06 00:35:30;;;;;;;3.80;0.75;;;;;;;;;;10293122;28;20037;-66
2021/04/06 00:40:31;;;;;;;4.13;0.90;;;;;;;;;;10277634;28;21244;-66
2021/04/06 00:45:30;;;;;;;2.33;0.98;;;;;;;;;;10277707;28;20462;-65
2021/04/06 00:50:27;;;;;;;;;;;;;;;;;;10283378;28;20018;-65
2021/04/06 00:55:31;;;;;;;4.88;1.00;;;;;;;;;;10271674;28;20441;-65
2021/04/06 01:00:31;;;;;;;5.30;0.65;;;;;;;;;;10276298;28;20048;-64
2021/04/06 01:05:30;;;;;;;5.05;0.77;;;;;;;;;;10305854;28;20048;-65
2021/04/06 01:10:29;;;;;;;7.80;1.77;;;;;;;;;;10287201;28;20113;-65
2021/04/06 01:15:26;;;;;;;5.05;0.85;;;;;;;;;;10290634;28;20026;-65
2021/04/06 01:20:25;;;;;;;3.20;0.87;;;;;;;;;;10297702;28;20018;-64
2021/04/06 01:25:29;;;;;;;3.58;0.88;;;;;;;;;;10291779;28;20025;-64
2021/04/06 01:30:43;;;;;;;5.25;0.80;;;;;;;;;;10292626;28;20018;-66
2021/04/06 01:35:44;;;;;;;0.30;0.30;;;;;;;;;;10284763;28;20041;-64
2021/04/06 01:40:43;;;;;;;1.75;0.65;;;;;;;;;;10260942;28;20029;-65
2021/04/06 01:45:49;;;;;;;3.00;0.60;;;;;;;;;;10291882;28;20152;-66
2021/04/06 01:50:48;;;;;;;3.85;1.38;;;;;;;;;;10275634;28;20049;-67
2021/04/06 01:55:57;;;;;;;0.95;0.95;;;;;;;;;;10269192;28;20037;-65
2021/04/06 02:05:53;;;;;;;1.92;1.23;;;;;;;;;;10273317;28;20040;-66
2021/04/06 02:10:51;;;;;;;2.83;0.93;;;;;;;;;;10301255;28;20039;-65
2021/04/06 02:15:56;;;;;;;0.57;0.57;;;;;;;;;;10273962;28;20526;-65
2021/04/06 02:20:54;;;;;;;2.50;0.88;;;;;;;;;;10294171;28;20099;-66
2021/04/06 02:25:55;;;;;;;5.10;1.15;;;;;;;;;;10287198;28;20111;-66
2021/04/06 02:30:53;;;;;;;9.00;1.73;;;;;;;;;;10274597;28;20060;-66
2021/04/06 02:35:58;;;;;;;6.88;1.83;;;;;;;;;;10298316;28;20108;-65
2021/04/06 02:41:03;;;;;;;9.45;1.70;;;;;;;;;;10288655;28;20148;-66
2021/04/06 02:46:00;;;;;;;10.18;2.20;;;;;;;;;;10283684;28;20029;-66
2021/04/06 02:50:58;;;;;;;9.73;2.00;;;;;;;;;;10290810;28;20033;-64
2021/04/06 02:55:56;;;;;;;9.63;2.63;;;;;;;;;;10280814;28;20033;-65
2021/04/06 03:01:08;;;;;;;14.55;2.45;;;;;;;;;;10302153;28;20029;-65
2021/04/06 03:06:08;;;;;;;7.32;1.20;;;;;;;;;;10260747;28;20104;-66
2021/04/06 03:11:07;;;;;;;7.40;2.33;;;;;;;;;;10274106;28;20487;-67
2021/04/06 03:16:06;;;;;;;10.95;1.88;;;;;;;;;;10288889;28;20030;-66
2021/04/06 03:21:05;;;;;;;9.40;1.70;;;;;;;;;;10289657;28;20037;-64
2021/04/06 03:26:04;;;;;;;9.20;2.17;;;;;;;;;;10272664;28;20025;-65
2021/04/06 03:31:06;;;;;;;10.18;1.65;;;;;;;;;;10280122;28;20028;-65
2021/04/06 03:36:04;;;;;;;10.35;1.92;;;;;;;;;;10269547;28;20033;-63
2021/04/06 03:41:02;;;;;;;12.50;2.05;;;;;;;;;;10286343;28;20564;-65
2021/04/06 03:46:04;;;;;;;6.07;1.07;;;;;;;;;;10271594;28;20120;-64
2021/04/06 03:51:03;;;;;;;6.35;1.63;;;;;;;;;;10292950;28;20276;-64
2021/04/06 03:56:05;;;;;;;4.68;1.50;;;;;;;;;;10272027;28;20673;-64
2021/04/06 04:01:02;;;;;;;6.15;1.25;;;;;;;;;;10266778;28;20111;-64
2021/04/06 04:06:01;;;;;;;5.72;1.15;;;;;;;;;;10284408;28;20060;-65
2021/04/06 04:10:58;;;;;;;11.17;1.80;;;;;;;;;;10265299;28;20041;-65
2021/04/06 04:15:56;;;;;;;3.80;1.13;;;;;;;;;;10282035;28;20026;-66
2021/04/06 04:20:53;;;;;;;16.00;2.03;;;;;;;;;;10287017;28;20036;-65
2021/04/06 04:25:50;;;;;;;15.30;2.70;;;;;;;;;;10289580;28;20029;-64
2021/04/06 04:30:50;;;;;;;7.87;1.47;;;;;;;;;;10288436;28;20033;-63
2021/04/06 04:35:47;;;;;;;8.57;2.00;;;;;;;;;;10278458;28;20037;-65
2021/04/06 04:40:45;;;;;;;4.70;1.10;;;;;;;;;;10270914;28;20483;-64
2021/04/06 04:45:42;;;;;;;6.50;1.63;;;;;;;;;;10305772;28;20044;-64
2021/04/06 04:50:39;;;;;;;8.63;1.43;;;;;;;;;;10285191;28;20057;-63
2021/04/06 04:55:37;;;;;;;6.50;1.20;;;;;;;;;;10248081;28;20125;-65
2021/04/06 05:00:34;;;;;;;6.97;1.13;;;;;;;;;;10267932;28;20813;-65
2021/04/06 05:05:32;;;;;;;15.63;2.03;;;;;;;;;;10275573;28;20038;-64
2021/04/06 05:10:29;;;;;;;11.70;1.73;;;;;;;;;;10275020;28;20916;-64
2021/04/06 05:15:29;;;;;;;8.57;2.37;;;;;;;;;;10283416;28;20021;-66
2021/04/06 05:20:27;;;;;;;3.90;1.55;;;;;;;;;;10271184;28;20471;-66
2021/04/06 05:25:24;;;;;;;20.63;2.47;;;;;;;;;;10278148;28;20022;-66
2021/04/06 05:30:22;;;;;;;11.97;1.43;;;;;;;;;;10264064;28;20061;-65
2021/04/06 05:35:22;;;;;;;6.77;1.37;;;;;;;;;;10266079;28;20036;-64
2021/04/06 05:40:21;;;;;;;3.25;0.90;;;;;;;;;;10260192;28;20095;-66
2021/04/06 05:45:19;;;;;;;4.47;0.97;;;;;;;;;;10277797;28;20098;-65
2021/04/06 05:50:17;;;;;;;4.15;1.20;;;;;;;;;;10260563;28;20116;-65
2021/04/06 05:55:14;;;;;;;7.30;1.57;;;;;;;;;;10270313;28;20104;-63
2021/04/06 06:00:12;;;;;;;21.10;2.50;;;;;;;;;;10273378;28;20041;-65
2021/04/06 06:05:10;;;;;;;12.95;1.88;;;;;;;;;;10324587;22;20053;-66
2021/04/06 06:10:26;;;;;;;5.40;1.10;;;;;;;;;;10278530;28;20364;-66
2021/04/06 06:15:23;;;;;;;6.25;1.55;;;;;;;;;;10326668;28;20107;-65
2021/04/06 06:20:21;;;;;;;9.63;1.43;;;;;;;;;;10363428;28;20100;-64
2021/04/06 06:25:18;;;;;;;3.83;1.43;;;;;;;;;;10338981;28;20032;-66
2021/04/06 06:30:19;;;;;;;2.57;1.00;;;;;;;;;;10288909;28;20520;-65
2021/04/06 06:35:35;;;;;;;3.80;1.58;;;;;;;;;;10330729;28;20035;-65
2021/04/06 06:40:34;;;;;;;4.65;1.27;;;;;;;;;;10343530;28;20049;-66
2021/04/06 06:45:34;;;;;;;4.07;1.23;;;;;;;;;;10354121;28;20078;-65
2021/04/06 06:50:44;;;;;;;4.25;1.45;;;;;;;;;;10354938;28;20864;-65
2021/04/06 06:55:50;;;;;;;5.97;1.30;;;;;;;;;;10270029;22;20200;-66
2021/04/06 07:00:54;;;;;;;2.60;1.13;;;;;;;;;;10218786;28;20536;-67
2021/04/06 07:05:51;;;;;;;7.20;1.58;;;;;;;;;;10225431;28;20136;-66
2021/04/06 07:10:49;;;;;;;1.83;1.33;;;;;;;;;;10245564;28;20033;-67
2021/04/06 07:15:48;;;;;;;2.00;0.70;;;;;;;;;;10250034;28;20033;-67
2021/04/06 07:20:46;;;;;;;7.57;1.40;;;;;;;;;;10249672;28;20063;-66
2021/04/06 07:25:44;;;;;;;4.93;1.10;;;;;;;;;;10260010;28;20471;-65
2021/04/06 07:30:42;;;;;;;;;;;;;;;;;;10292061;28;20392;-67
2021/04/06 07:35:39;;;;;;;8.88;1.45;;;;;;;;;;10263622;28;19919;-68
2021/04/06 07:40:37;;;;;;;3.10;1.00;;;;;;;;;;10255164;28;20507;-65
2021/04/06 07:45:34;;;;;;;6.93;0.90;;;;;;;;;;10273184;28;20096;-67
2021/04/06 07:50:34;;;;;;;6.87;2.30;;;;;;;;;;10268999;28;20041;-65
2021/04/06 07:55:41;;;;;;;8.32;1.80;;;;;;;;;;10244182;28;20056;-66
2021/04/06 08:00:48;;;;;;;5.35;2.42;;;;;;;;;;10263800;28;20041;-66
2021/04/06 08:06:05;;;;;;;5.97;1.17;;;;;;;;;;10269363;28;20050;-66
2021/04/06 08:11:03;;;;;;;4.68;1.17;;;;;;;;;;10258782;28;20491;-66
2021/04/06 08:16:13;;;;;;;11.07;1.77;;;;;;;;;;10264292;28;20407;-65
2021/04/06 08:21:11;;;;;;;7.13;1.00;;;;;;;;;;10239197;28;20075;-65
2021/04/06 08:26:24;;;;;;;2.37;1.10;;;;;;;;;;10256908;28;20029;-66
2021/04/06 08:31:23;;;;;;;3.28;1.02;;;;;;;;;;10248599;28;20037;-66
2021/04/06 08:36:28;;;;;;;8.98;1.60;;;;;;;;;;10255461;28;20045;-66
2021/04/06 08:41:25;;;;;;;4.03;0.90;;;;;;;;;;10279257;28;20438;-66
2021/04/06 08:46:33;;;;;;;2.73;0.67;;;;;;;;;;10269584;28;20033;-67
2021/04/06 08:51:40;;;;;;;5.55;0.95;;;;;;;;;;10275522;28;20072;-67
2021/04/06 08:56:48;;;;;;;4.32;1.45;;;;;;;;;;10275733;28;20033;-67
2021/04/06 09:01:56;;;;;;;0.95;0.70;;;;;;;;;;10268921;28;20041;-68
2021/04/06 09:06:54;;;;;;;1.88;0.70;;;;;;;;;;10284793;28;20050;-65
2021/04/06 09:11:52;;;;;;;10.90;1.80;;;;;;;;;;10278767;28;20075;-66
2021/04/06 09:16:49;;;;;;;;;;;;;;;;;;10264569;28;20049;-67
2021/04/06 09:21:52;;;;;;;4.35;1.15;;;;;;;;;;10266796;28;19920;-66
2021/04/06 09:26:51;;;;;;;4.95;2.22;;;;;;;;;;10271197;28;20411;-67
2021/04/06 09:31:49;;;;;;;6.20;1.15;;;;;;;;;;10283596;28;20117;-65
2021/04/06 09:36:55;;;;;;;5.43;1.00;;;;;;;;;;10257716;28;20132;-66
2021/04/06 09:41:53;;;;;;;5.93;0.75;;;;;;;;;;10278725;28;20069;-65
2021/04/06 09:46:52;;;;;;;7.25;1.30;;;;;;;;;;10252992;28;20044;-66
2021/04/06 09:51:52;;;;;;;3.88;0.68;;;;;;;;;;10272521;28;20057;-65
2021/04/06 09:56:49;;;;;;;4.97;0.90;;;;;;;;;;10255537;28;20466;-67
2021/04/06 10:01:51;;;;;;;5.23;1.00;;;;;;;;;;10267189;28;20033;-66
2021/04/06 10:06:48;;;;;;;2.35;0.88;;;;;;;;;;10261587;28;20060;-66
2021/04/06 10:11:47;;;;;;;7.40;1.43;;;;;;;;;;10270669;28;20044;-65
2021/04/06 10:16:45;;;;;;;8.63;1.40;;;;;;;;;;10264427;28;20129;-64
2021/04/06 10:21:42;;;;;;;6.70;1.33;;;;;;;;;;10255596;28;20034;-64
2021/04/06 10:26:40;;;;;;;8.87;1.30;;;;;;;;;;10276578;28;20048;-64
2021/04/06 10:31:48;;;;;;;3.90;0.98;;;;;;;;;;10256299;28;20518;-64
2021/04/06 10:37:00;;;;;;;4.53;0.77;;;;;;;;;;10255294;28;20376;-66
2021/04/06 10:41:58;;;;;;;6.53;0.82;;;;;;;;;;10287149;28;20150;-65
2021/04/06 10:46:55;;;;;;;6.30;1.07;;;;;;;;;;10261478;28;20590;-65
2021/04/06 10:51:53;;;;;;;1.70;0.63;;;;;;;;;;10258147;28;20034;-66
2021/04/06 10:56:53;;;;;;;2.28;0.77;;;;;;;;;;10256731;28;20029;-66
2021/04/06 11:01:52;;;;;;;3.53;0.90;;;;;;;;;;10241171;28;20037;-66
2021/04/06 11:06:56;;;;;;;7.78;1.30;;;;;;;;;;10246647;28;20040;-66
2021/04/06 11:11:55;;;;;;;1.58;0.50;;;;;;;;;;10270723;28;20036;-66
2021/04/06 11:16:53;;;;;;;7.68;1.20;;;;;;;;;;10249405;28;20071;-66
2021/04/06 11:21:52;;;;;;;2.80;0.57;;;;;;;;;;10278492;28;20506;-66
2021/04/06 11:26:50;;;;;;;4.28;0.82;;;;;;;;;;10249247;28;20149;-65
2021/04/06 11:31:48;;;;;;;5.07;0.73;;;;;;;;;;10284725;28;20033;-65
2021/04/06 11:36:49;;;;;;;2.75;0.65;;;;;;;;;;10246621;28;20033;-67
2021/04/06 11:41:48;;;;;;;9.30;0.80;;;;;;;;;;10280890;28;20061;-67
2021/04/06 11:46:46;;;;;;;1.63;0.65;;;;;;;;;;10271796;28;21289;-65
2021/04/06 11:51:44;;;;;;;2.05;0.80;;;;;;;;;;10247194;28;20516;-69
2021/04/06 11:56:41;;;;;;;0.70;0.30;;;;;;;;;;10283041;28;21138;-68
2021/04/06 12:01:39;;;;;;;1.50;0.50;;;;;;;;;;10294686;28;20091;-68
2021/04/06 12:06:37;;;;;;;4.82;0.98;;;;;;;;;;10284558;28;20041;-68
2021/04/06 12:11:35;;;;;;;6.43;1.17;;;;;;;;;;10269750;28;20047;-70
2021/04/06 12:16:32;;;;;;;5.73;1.17;;;;;;;;;;10284885;28;20808;-69
2021/04/06 12:21:29;;;;;;;3.47;1.17;;;;;;;;;;10298001;28;20338;-68
2021/04/06 12:26:27;;;;;;;2.23;0.87;;;;;;;;;;10256314;28;20527;-67
2021/04/06 12:31:24;;;;;;;1.93;0.43;;;;;;;;;;10254933;28;20044;-67
2021/04/06 12:36:22;;;;;;;2.53;0.60;;;;;;;;;;10275590;28;20034;-67
2021/04/06 12:41:19;;;;;;;0.80;0.50;;;;;;;;;;10280987;28;20041;-68
2021/04/06 12:46:17;;;;;;;0.73;0.67;;;;;;;;;;10262533;28;20038;-67
2021/04/06 12:51:14;;;;;;;4.37;0.90;;;;;;;;;;10284509;28;20471;-68
2021/04/06 12:56:12;;;;;;;3.40;0.67;;;;;;;;;;10274963;28;20072;-68
2021/04/06 13:01:09;;;;;;;3.70;1.10;;;;;;;;;;10287294;28;20037;-66
2021/04/06 13:06:06;;;;;;;2.47;0.80;;;;;;;;;;10257261;28;20038;-65
2021/04/06 13:11:04;;;;;;;2.50;0.70;;;;;;;;;;10286494;28;20033;-66
2021/04/06 13:16:01;;;;;;;2.27;0.70;;;;;;;;;;10271505;28;20463;-64
2021/04/06 13:20:59;;;;;;;2.83;0.60;;;;;;;;;;10281343;28;20609;-66
2021/04/06 13:25:57;;;;;;;5.27;0.90;;;;;;;;;;10274482;28;20102;-65
2021/04/06 13:30:55;;;;;;;;;;;;;;;;;;10260794;28;20788;-66
2021/04/06 13:35:52;;;;;;;7.50;1.17;;;;;;;;;;10255091;28;19917;-66
2021/04/06 13:40:50;;;;;;;1.93;0.87;;;;;;;;;;10274187;28;20030;-67
2021/04/06 13:45:47;;;;;;;4.43;0.80;;;;;;;;;;10270731;28;20307;-66
2021/04/06 13:50:46;;;;;;;9.23;0.83;;;;;;;;;;10262823;28;20721;-66
2021/04/06 13:55:43;;;;;;;2.08;0.47;;;;;;;;;;10261088;28;20562;-66
2021/04/06 14:00:42;;;;;;;5.33;0.93;;;;;;;;;;10268012;28;20073;-67
2021/04/06 14:05:41;;;;;;;4.28;0.93;;;;;;;;;;10253110;28;20467;-66
2021/04/06 14:10:39;;;;;;;6.30;0.90;;;;;;;;;;10264016;28;20112;-67
2021/04/06 14:15:37;;;;;;;6.20;0.63;;;;;;;;;;10251512;28;20132;-67
2021/04/06 14:20:36;;;;;;;0.47;0.28;;;;;;;;;;10266158;28;20306;-67
2021/04/06 14:25:33;;;;;;;0.30;0.30;;;;;;;;;;10254169;28;21076;-67
2021/04/06 14:30:33;;;;;;;1.40;0.70;;;;;;;;;;10267956;28;20336;-67
2021/04/06 14:35:31;;;;;;;0.35;0.35;;;;;;;;;;10254670;28;20045;-67
2021/04/06 14:40:29;;;;;;;1.75;0.57;;;;;;;;;;10269694;28;20046;-65
2021/04/06 14:45:26;;;;;;;5.53;0.77;;;;;;;;;;10255596;28;20032;-67
2021/04/06 14:50:24;;;;;;;2.90;0.70;;;;;;;;;;10274088;28;20080;-68
2021/04/06 14:55:21;;;;;;;3.27;0.80;;;;;;;;;;10259695;28;20073;-68
2021/04/06 15:00:19;;;;;;;2.13;0.70;;;;;;;;;;10269786;28;20073;-68
2021/04/06 15:05:17;;;;;;;2.90;0.57;;;;;;;;;;10262753;28;20037;-66
2021/04/06 15:10:14;;;;;;;5.47;0.60;;;;;;;;;;10261759;28;20174;-68
2021/04/06 15:15:12;;;;;;;4.13;1.57;;;;;;;;;;10262432;28;20036;-68
2021/04/06 15:20:12;;;;;;;4.27;1.03;;;;;;;;;;10247417;28;20045;-67
2021/04/06 15:25:11;;;;;;;2.92;0.80;;;;;;;;;;10263149;28;20495;-67
2021/04/06 15:30:08;;;;;;;;;;;;;;;;;;10271988;28;20042;-67
2021/04/06 15:35:09;;;;;;;1.83;0.60;;;;;;;;;;10261334;28;20666;-67
2021/04/06 15:40:07;;;;;;;2.03;1.10;;;;;;;;;;10264821;28;20072;-68
2021/04/06 15:45:05;;;;;;;1.42;0.60;;;;;;;;;;10268035;28;20034;-67
2021/04/06 15:50:11;;;;;;;7.70;1.00;;;;;;;;;;10264268;28;20030;-65
2021/04/06 16:00:16;;;;;;;1.83;0.80;;;;;;;;;;10204168;28;20054;-66
2021/04/06 16:05:14;;;;;;;;;;;;;;;;;;10224470;28;20041;-67
2021/04/06 16:10:12;;;;;;;1.65;0.50;;;;;;;;;;10195646;28;19914;-66
2021/04/06 16:15:10;;;;;;;6.87;1.20;;;;;;;;;;10233059;28;20042;-66
2021/04/06 16:20:08;;;;;;;4.65;0.93;;;;;;;;;;10221329;28;20582;-66
2021/04/06 16:25:07;;;;;;;13.85;1.20;;;;;;;;;;10235208;28;20037;-66
2021/04/06 16:30:05;;;;;;;4.18;0.90;;;;;;;;;;10269501;23;20040;-66
2021/04/06 16:35:03;;;;;;;7.35;1.05;;;;;;;;;;10314553;28;20115;-67
2021/04/06 16:40:00;;;;;;;5.40;1.33;;;;;;;;;;10359186;28;20665;-68
2021/04/06 16:44:58;;;;;;;4.33;1.57;;;;;;;;;;10374726;28;20366;-67
2021/04/06 16:49:55;;;;;;;3.93;1.23;;;;;;;;;;10380787;28;20037;-67
2021/04/06 16:54:52;;;;;;;8.63;1.70;;;;;;;;;;10375365;28;20028;-67
2021/04/06 16:59:50;;;;;;;4.00;1.87;;;;;;;;;;10378658;28;20075;-67
2021/04/06 17:04:48;;;;;;;5.10;1.38;;;;;;;;;;10351059;28;20135;-67
2021/04/06 17:09:45;;;;;;;2.63;1.00;;;;;;;;;;10378330;28;20033;-67
2021/04/06 17:14:43;;;;;;;2.07;0.97;;;;;;;;;;10375324;28;20500;-68
2021/04/06 17:19:40;;;;;;;1.90;0.80;;;;;;;;;;10378868;28;20540;-66
2021/04/06 17:24:37;;;;;;;0.40;0.40;;;;;;;;;;10381892;28;20039;-67
2021/04/06 17:29:35;;;;;;;6.17;3.63;;;;;;;;;;10371950;28;20509;-67
2021/04/06 17:34:32;;;;;;;12.17;3.53;;;;;;;;;;10381720;28;20560;-66
2021/04/06 17:39:30;;;;;;;4.43;2.63;;;;;;;;;;10380798;28;20043;-67
2021/04/06 17:44:28;;;;;;;5.87;1.97;;;;;;;;;;10374399;28;20043;-66
2021/04/06 17:49:26;;;;;;;;;;;;;;;;;;10363194;28;20036;-66
2021/04/06 17:54:23;;;;;;;1.87;0.80;;;;;;;;;;10369433;28;20284;-68
2021/04/06 17:59:21;;;;;;;2.53;1.00;;;;;;;;;;10372434;28;20279;-67
2021/04/06 18:04:18;;;;;;;9.97;2.27;;;;;;;;;;10364079;28;20145;-67
2021/04/06 18:09:15;;;;;;;4.03;1.03;;;;;;;;;;10383024;28;20119;-68
2021/04/06 18:14:13;;;;;;;6.17;1.10;;;;;;;;;;10369619;28;20041;-67
2021/04/06 18:19:10;;;;;;;2.63;0.90;;;;;;;;;;10334160;28;20043;-67
2021/04/06 18:24:08;;;;;;;7.07;1.17;;;;;;;;;;10364469;28;20509;-67
2021/04/06 18:29:05;;;;;;;4.50;0.93;;;;;;;;;;10372713;28;20036;-67
2021/04/06 18:34:03;;;;;;;0.77;0.77;;;;;;;;;;10368000;28;20028;-65
2021/04/06 18:39:01;;;;;;;3.53;0.70;;;;;;;;;;10381982;28;20033;-67
2021/04/06 18:43:58;;;;;;;8.53;1.13;;;;;;;;;;10367954;28;20441;-66
2021/04/06 18:48:56;;;;;;;8.33;1.17;;;;;;;;;;10372182;28;20536;-67
2021/04/06 18:53:53;;;;;;;4.80;1.10;;;;;;;;;;10388347;28;20514;-63
2021/04/06 18:58:50;;;;;;;5.03;0.80;;;;;;;;;;10364251;28;20021;-67
2021/04/06 19:03:51;;;;;;;9.37;1.63;;;;;;;;;;10356851;28;20017;-67
2021/04/06 19:08:49;;;;;;;5.97;1.23;;;;;;;;;;10369893;28;20385;-67
2021/04/06 19:13:46;;;;;;;6.67;1.97;;;;;;;;;;10368055;28;20028;-66
2021/04/06 19:18:44;;;;;;;6.18;1.77;;;;;;;;;;10359729;28;20028;-66
2021/04/06 19:23:42;;;;;;;3.67;0.97;;;;;;;;;;10351485;28;20031;-66
2021/04/06 19:28:40;;;;;;;11.80;1.60;;;;;;;;;;10372390;28;20045;-66
2021/04/06 19:33:39;;;;;;;8.10;1.38;;;;;;;;;;10380208;28;20025;-67
2021/04/06 19:38:37;;;;;;;11.30;2.30;;;;;;;;;;10377995;28;20039;-66
2021/04/06 19:43:35;;;;;;;10.87;1.50;;;;;;;;;;10377350;28;20040;-66
2021/04/06 19:48:32;;;;;;;11.10;1.77;;;;;;;;;;10369453;28;20291;-66
2021/04/06 19:53:30;;;;;;;10.63;1.63;;;;;;;;;;10372136;28;20090;-66
2021/04/06 19:58:27;;;;;;;15.63;1.80;;;;;;;;;;10375014;28;20044;-65
2021/04/06 20:03:25;;;;;;;12.10;1.53;;;;;;;;;;10369294;28;20484;-68
2021/04/06 20:08:23;;;;;;;8.43;1.30;;;;;;;;;;10367125;28;20037;-64
2021/04/06 20:13:25;;;;;;;7.47;1.63;;;;;;;;;;10364750;28;20493;-64
2021/04/06 20:18:23;;;;;;;8.52;1.48;;;;;;;;;;10361980;28;20035;-63
2021/04/06 20:23:21;;;;;;;;;;;;;;;;;;10378218;28;20039;-59
2021/04/06 20:28:19;;;;;;;8.55;2.85;;;;;;;;;;10379561;28;19920;-61
2021/04/06 20:33:18;;;;;;;15.57;3.22;;;;;;;;;;10376583;28;20033;-64
2021/04/06 20:38:16;;;;;;;4.60;1.15;;;;;;;;;;10373807;28;20105;-63
2021/04/06 20:43:13;;;;;;;8.63;1.43;;;;;;;;;;10379800;28;20139;-64
2021/04/06 20:48:12;;;;;;;8.27;2.20;;;;;;;;;;10359264;28;20047;-68
2021/04/06 20:53:09;;;;;;;2.00;0.60;;;;;;;;;;10353462;28;20060;-62
2021/04/06 20:58:08;;;;;;;8.63;1.90;;;;;;;;;;10378731;28;20068;-62
2021/04/06 21:03:06;;;;;;;6.63;1.13;;;;;;;;;;10379449;28;20032;-61
2021/04/06 21:08:04;;;;;;;7.90;1.20;;;;;;;;;;10341455;28;20032;-61
2021/04/06 21:13:01;;;;;;;5.33;1.40;;;;;;;;;;10379336;28;20405;-62
2021/04/06 21:18:02;;;;;;;5.25;0.95;;;;;;;;;;10359006;28;20035;-65
2021/04/06 21:23:01;;;;;;;8.37;1.07;;;;;;;;;;10371924;28;21255;-67
2021/04/06 21:27:58;;;;;;;5.53;1.15;;;;;;;;;;10368838;28;20059;-65
2021/04/06 21:32:56;;;;;;;5.13;0.83;;;;;;;;;;10361662;28;20485;-66
2021/04/06 21:37:54;;;;;;;5.90;1.33;;;;;;;;;;10381653;28;20052;-65
2021/04/06 21:42:52;;;;;;;10.52;1.48;;;;;;;;;;10356562;28;20112;-66
2021/04/06 21:47:50;;;;;;;5.72;0.98;;;;;;;;;;10378355;28;20115;-65
2021/04/06 21:52:48;;;;;;;9.03;1.67;;;;;;;;;;10363444;28;20098;-65
2021/04/06 21:57:46;;;;;;;6.15;1.52;;;;;;;;;;10361778;28;20494;-67
2021/04/06 22:02:43;;;;;;;7.33;1.33;;;;;;;;;;10366856;28;20425;-66
2021/04/06 22:07:41;;;;;;;4.68;1.20;;;;;;;;;;10368930;28;20162;-64
2021/04/06 22:12:38;;;;;;;4.33;1.33;;;;;;;;;;10370192;28;20028;-66
2021/04/06 22:17:36;;;;;;;4.53;1.40;;;;;;;;;;10361266;28;20075;-67
2021/04/06 22:22:33;;;;;;;4.10;1.10;;;;;;;;;;10375695;28;20044;-64
2021/04/06 22:27:31;;;;;;;9.20;1.73;;;;;;;;;;10364180;28;20037;-65
2021/04/06 22:32:29;;;;;;;5.10;1.57;;;;;;;;;;10343913;28;20083;-66
2021/04/06 22:37:27;;;;;;;5.20;1.65;;;;;;;;;;10349494;28;20414;-66
2021/04/06 22:42:24;;;;;;;6.07;1.00;;;;;;;;;;10370038;28;20040;-65
2021/04/06 22:47:22;;;;;;;10.17;1.70;;;;;;;;;;10370780;28;20037;-65
2021/04/06 22:52:20;;;;;;;4.13;0.60;;;;;;;;;;10366336;28;20043;-65
2021/04/06 22:57:19;;;;;;;6.25;1.52;;;;;;;;;;10347663;28;20039;-65
2021/04/06 23:02:16;;;;;;;10.07;1.73;;;;;;;;;;10330716;28;20036;-66
2021/04/06 23:07:14;;;;;;;6.73;0.90;;;;;;;;;;10343656;28;20032;-67
2021/04/06 23:12:11;;;;;;;4.37;1.10;;;;;;;;;;10348205;28;20028;-67
2021/04/06 23:17:09;;;;;;;4.87;1.77;;;;;;;;;;10326594;28;20372;-65
2021/04/06 23:22:07;;;;;;;4.88;1.05;;;;;;;;;;10346880;28;20033;-63
2021/04/06 23:27:04;;;;;;;9.10;2.53;;;;;;;;;;10329646;28;20033;-63
2021/04/06 23:32:02;;;;;;;2.13;0.70;;;;;;;;;;10353337;28;20225;-65
2021/04/06 23:36:59;;;;;;;5.73;1.27;;;;;;;;;;10359367;28;20067;-64
2021/04/06 23:41:57;;;;;;;3.80;1.10;;;;;;;;;;10362600;28;20095;-64
2021/04/06 23:46:54;;;;;;;2.67;1.10;;;;;;;;;;10369975;28;20024;-64
2021/04/06 23:51:51;;;;;;;5.20;0.83;;;;;;;;;;10352348;28;20032;-65
2021/04/06 23:56:50;;;;;;;5.20;0.77;;;;;;;;;;10375511;28;20054;-66
